createdAt,value
2019-01-16T00:06:46.155Z,7.60
2019-01-16T00:09:56.724Z,7.56
2019-01-16T00:12:48.117Z,7.51
2019-01-16T00:18:42.179Z,7.54
2019-01-16T00:21:31.481Z,7.47
2019-01-16T00:24:20.884Z,7.47
2019-01-16T00:33:26.621Z,7.35
2019-01-16T00:36:15.977Z,7.37
2019-01-16T00:39:05.400Z,7.40
2019-01-16T00:41:54.926Z,7.37
2019-01-16T00:44:44.247Z,7.36
2019-01-16T00:50:41.880Z,7.36
2019-01-16T00:53:44.401Z,7.34
2019-01-16T00:56:33.720Z,7.26
2019-01-16T01:00:01.138Z,7.29
2019-01-16T01:02:50.531Z,7.35
2019-01-16T01:08:22.631Z,7.36
2019-01-16T01:11:24.014Z,7.37
2019-01-16T01:14:13.685Z,7.35
2019-01-16T01:17:04.498Z,7.39
2019-01-16T01:20:13.122Z,7.38
2019-01-16T01:23:02.359Z,7.35
2019-01-16T01:29:12.010Z,7.32
2019-01-16T01:35:12.611Z,7.25
2019-01-16T01:38:39.779Z,7.15
2019-01-16T01:41:29.105Z,7.10
2019-01-16T01:44:18.394Z,7.06
2019-01-16T01:47:07.678Z,7.09
2019-01-16T01:49:56.940Z,7.10
2019-01-16T01:55:32.093Z,7.12
2019-01-16T01:58:08.840Z,7.16
2019-01-16T02:00:58.141Z,7.13
2019-01-16T02:06:49.969Z,7.14
2019-01-16T02:09:39.514Z,7.15
2019-01-16T02:12:28.771Z,7.13
2019-01-16T02:18:20.642Z,7.15
2019-01-16T02:21:28.976Z,7.14
2019-01-16T02:24:37.626Z,7.13
2019-01-16T02:27:27.059Z,7.12
2019-01-16T02:30:16.481Z,7.15
2019-01-16T02:33:05.914Z,7.21
2019-01-16T02:35:55.415Z,7.22
2019-01-16T02:38:56.879Z,7.21
2019-01-16T02:41:46.144Z,7.22
2019-01-16T02:44:24.198Z,7.24
2019-01-16T02:47:13.911Z,7.22
2019-01-16T02:52:48.860Z,7.24
2019-01-16T02:55:30.605Z,7.23
2019-01-16T02:58:22.583Z,7.25
2019-01-16T03:04:14.467Z,7.20
2019-01-16T03:07:03.750Z,7.21
2019-01-16T03:13:17.842Z,7.23
2019-01-16T03:16:07.788Z,7.25
2019-01-16T03:19:04.307Z,7.21
2019-01-16T03:24:38.903Z,7.22
2019-01-16T03:27:28.513Z,7.21
2019-01-16T03:30:17.845Z,7.16
2019-01-16T03:33:07.157Z,7.16
2019-01-16T03:35:56.504Z,7.16
2019-01-16T03:38:58.161Z,7.17
2019-01-16T03:41:47.437Z,7.19
2019-01-16T03:44:36.701Z,7.13
2019-01-16T03:47:26.038Z,7.12
2019-01-16T03:50:15.273Z,7.11
2019-01-16T03:53:04.816Z,7.08
2019-01-16T03:55:54.131Z,7.02
2019-01-16T03:58:43.449Z,7.06
2019-01-16T04:04:21.604Z,7.04
2019-01-16T04:07:10.289Z,7.02
2019-01-16T04:09:59.883Z,7.05
2019-01-16T04:12:41.748Z,7.05
2019-01-16T04:18:13.440Z,7.05
2019-01-16T04:20:54.466Z,7.08
2019-01-16T04:23:43.689Z,7.11
2019-01-16T04:26:33.371Z,7.08
2019-01-16T04:32:23.932Z,7.18
2019-01-16T04:35:13.246Z,7.19
2019-01-16T04:38:08.594Z,7.16
2019-01-16T04:40:57.877Z,7.20
2019-01-16T04:43:47.433Z,7.18
2019-01-16T04:46:36.723Z,7.20
2019-01-16T04:49:30.517Z,7.21
2019-01-16T04:52:21.890Z,7.20
2019-01-16T04:55:10.699Z,7.26
2019-01-16T04:57:59.943Z,7.23
2019-01-16T05:00:41.630Z,7.22
2019-01-16T05:03:30.938Z,7.26
2019-01-16T05:12:29.504Z,7.29
2019-01-16T05:18:27.703Z,7.29
2019-01-16T05:21:17.097Z,7.31
2019-01-16T05:24:07.008Z,7.33
2019-01-16T05:26:56.278Z,7.36
2019-01-16T05:30:04.740Z,7.40
2019-01-16T05:32:53.863Z,7.44
2019-01-16T05:35:43.151Z,7.42
2019-01-16T05:41:28.466Z,7.40
2019-01-16T05:44:37.366Z,7.45
2019-01-16T05:50:53.208Z,7.52
2019-01-16T05:53:42.454Z,7.50
2019-01-16T05:56:31.718Z,7.48
2019-01-16T06:02:02.678Z,7.49
2019-01-16T06:04:51.946Z,7.52
2019-01-16T06:07:36.358Z,7.53
2019-01-16T06:10:48.081Z,7.52
2019-01-16T06:13:37.321Z,7.53
2019-01-16T06:16:52.120Z,7.55
2019-01-16T06:22:50.114Z,7.58
2019-01-16T06:26:17.309Z,7.53
2019-01-16T06:29:06.716Z,7.49
2019-01-16T06:31:56.020Z,7.56
2019-01-16T06:34:46.737Z,7.52
2019-01-16T06:37:55.224Z,7.52
2019-01-16T06:41:03.853Z,7.55
2019-01-16T06:43:51.854Z,7.53
2019-01-16T06:46:44.126Z,7.47
2019-01-16T06:52:27.796Z,7.52
2019-01-16T06:58:19.785Z,7.51
2019-01-16T07:01:09.016Z,7.50
2019-01-16T07:03:58.295Z,7.47
2019-01-16T07:06:47.595Z,7.46
2019-01-16T07:09:38.044Z,7.47
2019-01-16T07:12:53.691Z,7.45
2019-01-16T07:15:43.132Z,7.47
2019-01-16T07:18:33.086Z,7.41
2019-01-16T07:21:11.981Z,7.44
2019-01-16T07:24:01.276Z,7.41
2019-01-16T07:26:50.602Z,7.42
2019-01-16T07:29:32.416Z,7.39
2019-01-16T07:32:22.242Z,7.36
2019-01-16T07:35:11.511Z,7.43
2019-01-16T07:38:19.912Z,7.40
2019-01-16T07:41:09.173Z,7.38
2019-01-16T07:43:51.919Z,7.40
2019-01-16T07:47:00.407Z,7.38
2019-01-16T07:49:49.695Z,7.36
2019-01-16T07:52:39.053Z,7.37
2019-01-16T07:55:28.464Z,7.35
2019-01-16T07:58:18.022Z,7.33
2019-01-16T08:01:07.579Z,7.35
2019-01-16T08:03:57.557Z,7.40
2019-01-16T08:06:46.845Z,7.38
2019-01-16T08:09:37.522Z,7.37
2019-01-16T08:12:18.948Z,7.36
2019-01-16T08:15:08.245Z,7.33
2019-01-16T08:17:57.593Z,7.39
2019-01-16T08:20:46.919Z,7.39
2019-01-16T08:23:36.361Z,7.32
2019-01-16T08:26:24.327Z,7.35
2019-01-16T08:29:13.966Z,7.37
2019-01-16T08:32:03.246Z,7.39
2019-01-16T08:35:00.545Z,7.40
2019-01-16T08:40:58.376Z,7.33
2019-01-16T08:43:47.626Z,7.24
2019-01-16T08:46:37.022Z,7.28
2019-01-16T08:49:26.417Z,7.30
2019-01-16T08:52:15.493Z,7.30
2019-01-16T08:57:46.470Z,7.24
2019-01-16T09:03:40.466Z,7.30
2019-01-16T09:06:50.344Z,7.28
2019-01-16T09:09:39.579Z,7.33
2019-01-16T09:12:28.909Z,7.31
2019-01-16T09:15:18.116Z,7.31
2019-01-16T09:18:07.381Z,7.27
2019-01-16T09:20:56.693Z,7.29
2019-01-16T09:23:38.549Z,7.32
2019-01-16T09:26:27.809Z,7.26
2019-01-16T09:29:17.161Z,7.25
2019-01-16T09:32:06.526Z,7.28
2019-01-16T09:37:47.411Z,7.27
2019-01-16T09:43:46.758Z,7.29
2019-01-16T09:52:40.040Z,7.27
2019-01-16T09:55:31.610Z,7.26
2019-01-16T10:04:07.486Z,7.18
2019-01-16T10:06:56.927Z,7.21
2019-01-16T10:09:46.206Z,7.22
2019-01-16T10:12:35.489Z,7.25
2019-01-16T10:15:24.327Z,7.22
2019-01-16T10:18:13.627Z,7.11
2019-01-16T10:21:05.422Z,7.15
2019-01-16T10:23:54.868Z,7.15
2019-01-16T10:26:36.516Z,7.20
2019-01-16T10:29:25.780Z,7.23
2019-01-16T10:32:15.074Z,7.22
2019-01-16T10:35:25.042Z,7.19
2019-01-16T10:38:15.846Z,7.21
2019-01-16T10:41:25.810Z,7.26
2019-01-16T10:44:15.319Z,7.26
2019-01-16T10:47:04.900Z,7.26
2019-01-16T10:49:46.872Z,7.27
2019-01-16T10:52:36.263Z,7.30
2019-01-16T10:55:27.128Z,7.32
2019-01-16T10:58:16.468Z,7.34
2019-01-16T11:00:55.376Z,7.32
2019-01-16T11:06:47.399Z,7.32
2019-01-16T11:09:51.776Z,7.33
2019-01-16T11:12:41.289Z,7.34
2019-01-16T11:15:30.819Z,7.35
2019-01-16T11:18:20.509Z,7.47
2019-01-16T11:21:11.103Z,7.48
2019-01-16T11:23:52.974Z,7.44
2019-01-16T11:26:42.256Z,7.43
2019-01-16T11:32:16.134Z,7.50
2019-01-16T11:35:24.511Z,7.48
2019-01-16T11:41:23.469Z,7.50
2019-01-16T11:44:12.812Z,7.44
2019-01-16T11:50:02.785Z,7.33
2019-01-16T11:52:53.477Z,7.34
2019-01-16T11:55:43.563Z,7.29
2019-01-16T11:58:38.762Z,7.30
2019-01-16T12:01:29.496Z,7.32
2019-01-16T12:04:18.921Z,7.24
2019-01-16T12:07:08.237Z,7.26
2019-01-16T12:12:59.732Z,7.29
2019-01-16T12:15:49.918Z,7.32
2019-01-16T12:18:31.703Z,7.35
2019-01-16T12:21:26.334Z,7.28
2019-01-16T12:24:17.189Z,7.25
2019-01-16T12:27:27.004Z,7.25
2019-01-16T12:30:16.287Z,7.33
2019-01-16T12:33:05.771Z,7.24
2019-01-16T12:35:55.500Z,7.26
2019-01-16T12:38:45.203Z,7.19
2019-01-16T12:41:59.548Z,7.18
2019-01-16T12:47:47.054Z,7.15
2019-01-16T12:50:36.321Z,7.21
2019-01-16T12:53:27.896Z,7.20
2019-01-16T12:56:17.217Z,7.31
2019-01-16T13:01:48.188Z,7.30
2019-01-16T13:04:48.960Z,7.27
2019-01-16T13:07:38.288Z,7.26
2019-01-16T13:16:13.896Z,7.28
2019-01-16T13:19:04.594Z,7.35
2019-01-16T13:22:05.595Z,7.37
2019-01-16T13:24:55.220Z,7.37
2019-01-16T13:27:45.912Z,7.34
2019-01-16T13:33:38.848Z,7.39
2019-01-16T13:36:48.671Z,7.38
2019-01-16T13:40:19.279Z,7.31
2019-01-16T13:43:24.072Z,7.34
2019-01-16T13:46:13.383Z,7.33
2019-01-16T13:49:02.653Z,7.37
2019-01-16T13:51:46.418Z,7.32
2019-01-16T13:54:48.454Z,7.34
2019-01-16T13:57:58.534Z,7.26
2019-01-16T14:00:48.667Z,7.31
2019-01-16T14:03:32.253Z,7.31
2019-01-16T14:06:59.546Z,7.30
2019-01-16T14:12:51.031Z,7.36
2019-01-16T14:16:01.333Z,7.36
2019-01-16T14:18:39.962Z,7.38
2019-01-16T14:21:32.001Z,7.38
2019-01-16T14:36:14.445Z,7.49
2019-01-16T14:39:03.998Z,7.51
2019-01-16T14:41:53.731Z,7.51
2019-01-16T14:48:08.525Z,7.43
2019-01-16T14:50:58.074Z,7.48
2019-01-16T14:54:07.001Z,7.49
2019-01-16T14:59:38.148Z,7.53
2019-01-16T15:05:52.157Z,7.52
2019-01-16T15:08:36.190Z,7.52
2019-01-16T15:11:26.129Z,7.51
2019-01-16T15:14:27.423Z,7.51
2019-01-16T15:26:24.481Z,7.60
2019-01-16T15:29:14.163Z,7.64
2019-01-16T15:32:03.556Z,7.68
2019-01-16T15:34:53.209Z,7.64
2019-01-16T15:37:42.144Z,7.62
2019-01-16T15:43:43.859Z,7.59
2019-01-16T15:46:28.072Z,7.56
2019-01-16T15:49:17.426Z,7.51
2019-01-16T15:55:01.506Z,7.44
2019-01-16T16:00:53.237Z,7.44
2019-01-16T16:03:42.691Z,7.42
2019-01-16T16:06:51.259Z,7.39
2019-01-16T16:09:40.586Z,7.35
2019-01-16T16:12:30.020Z,7.31
2019-01-16T16:15:38.411Z,7.24
2019-01-16T16:21:30.824Z,7.14
2019-01-16T16:24:20.168Z,7.12
2019-01-16T16:27:09.856Z,7.11
2019-01-16T16:30:15.061Z,7.11
2019-01-16T16:33:04.957Z,7.12
2019-01-16T16:38:57.397Z,7.10
2019-01-16T16:44:21.890Z,7.14
2019-01-16T16:50:14.326Z,7.20
2019-01-16T16:52:52.893Z,7.20
2019-01-16T16:55:43.311Z,7.15
2019-01-16T17:01:35.267Z,7.10
2019-01-16T17:04:25.328Z,7.11
2019-01-16T17:07:25.625Z,7.13
2019-01-16T17:10:15.017Z,7.12
2019-01-16T17:12:58.238Z,7.11
2019-01-16T17:15:47.601Z,7.08
2019-01-16T17:18:56.138Z,7.02
2019-01-16T17:21:48.342Z,6.99
2019-01-16T17:24:58.423Z,7.01
2019-01-16T17:27:48.788Z,6.96
2019-01-16T17:30:41.075Z,6.93
2019-01-16T17:33:32.795Z,6.94
2019-01-16T17:36:22.596Z,6.90
2019-01-16T17:39:13.757Z,6.89
2019-01-16T17:48:14.156Z,6.84
2019-01-16T17:51:03.745Z,6.81
2019-01-16T17:53:53.172Z,6.78
2019-01-16T17:57:20.589Z,6.77
2019-01-16T18:03:06.634Z,6.83
2019-01-16T18:05:56.638Z,6.84
2019-01-16T18:08:53.206Z,6.82
2019-01-16T18:11:32.145Z,6.85
2019-01-16T18:14:21.519Z,6.76
2019-01-16T18:17:10.905Z,6.79
2019-01-16T18:20:00.327Z,6.80
2019-01-16T18:23:01.913Z,6.84
2019-01-16T18:25:51.387Z,6.87
2019-01-16T18:28:41.336Z,6.88
2019-01-16T18:31:42.160Z,6.89
2019-01-16T18:40:29.583Z,6.97
2019-01-16T18:43:19.187Z,6.96
2019-01-16T18:46:00.977Z,6.95
2019-01-16T18:48:48.810Z,6.86
2019-01-16T18:51:30.785Z,6.85
2019-01-16T18:54:20.717Z,6.88
2019-01-16T18:57:02.631Z,6.87
2019-01-16T18:59:40.478Z,6.79
2019-01-16T19:02:29.839Z,6.74
2019-01-16T19:05:19.078Z,6.77
2019-01-16T19:08:09.888Z,6.73
2019-01-16T19:10:59.255Z,6.78
2019-01-16T19:13:51.024Z,6.79
2019-01-16T19:16:47.078Z,6.85
2019-01-16T19:19:36.495Z,6.85
2019-01-16T19:22:46.479Z,6.84
2019-01-16T19:31:42.087Z,6.87
2019-01-16T19:34:29.213Z,6.89
2019-01-16T19:37:18.724Z,6.82
2019-01-16T19:40:08.491Z,6.82
2019-01-16T19:43:09.328Z,6.78
2019-01-16T19:46:18.337Z,6.81
2019-01-16T19:49:07.706Z,6.81
2019-01-16T19:55:19.265Z,6.80
2019-01-16T19:58:10.193Z,6.72
2019-01-16T20:01:20.000Z,6.77
2019-01-16T20:04:28.774Z,6.78
2019-01-16T20:07:56.670Z,6.77
2019-01-16T20:13:40.763Z,6.79
2019-01-16T20:16:30.319Z,6.78
2019-01-16T20:19:20.377Z,6.79
2019-01-16T20:22:10.140Z,6.78
2019-01-16T20:25:05.956Z,6.82
2019-01-16T20:31:17.216Z,6.76
2019-01-16T20:40:12.690Z,6.81
2019-01-16T20:42:54.318Z,6.85
2019-01-16T20:45:51.005Z,6.89
2019-01-16T20:48:43.531Z,6.86
2019-01-16T20:51:50.615Z,6.85
2019-01-16T20:54:41.487Z,6.85
2019-01-16T20:57:51.842Z,6.93
2019-01-16T21:04:11.403Z,6.89
2019-01-16T21:07:01.429Z,6.92
2019-01-16T21:09:50.456Z,6.93
2019-01-16T21:12:40.899Z,6.96
2019-01-16T21:15:34.400Z,6.94
2019-01-16T21:18:24.094Z,6.95
2019-01-16T21:24:43.691Z,6.92
2019-01-16T21:27:34.798Z,6.92
2019-01-16T21:33:26.951Z,6.95
2019-01-16T21:36:13.848Z,6.93
2019-01-16T21:39:05.496Z,6.95
2019-01-16T21:41:55.185Z,6.96
2019-01-16T21:45:03.700Z,7.01
2019-01-16T21:47:53.604Z,7.03
2019-01-16T21:50:34.231Z,6.98
2019-01-16T21:53:23.465Z,7.01
2019-01-16T21:56:31.895Z,7.04
2019-01-16T21:59:12.978Z,7.04
2019-01-16T22:02:02.280Z,7.04
2019-01-16T22:04:53.864Z,7.04
2019-01-16T22:07:43.569Z,7.03
2019-01-16T22:10:28.929Z,7.08
2019-01-16T22:13:37.361Z,7.08
2019-01-16T22:16:26.806Z,7.07
2019-01-16T22:19:16.102Z,7.09
2019-01-16T22:22:05.500Z,7.15
2019-01-16T22:25:10.687Z,7.17
2019-01-16T22:28:00.024Z,7.14
2019-01-16T22:33:53.287Z,7.15
2019-01-16T22:39:51.221Z,7.16
2019-01-16T22:42:40.619Z,7.12
2019-01-16T22:45:32.675Z,7.15
2019-01-16T22:48:22.373Z,7.18
2019-01-16T22:51:13.311Z,7.19
2019-01-16T22:54:03.327Z,7.20
2019-01-16T22:56:52.690Z,7.15
2019-01-16T22:59:42.271Z,7.16
2019-01-16T23:02:31.845Z,7.15
2019-01-16T23:05:13.437Z,7.17
2019-01-16T23:08:02.731Z,7.28
2019-01-16T23:11:11.151Z,7.24
2019-01-16T23:14:00.738Z,7.21
2019-01-16T23:16:50.093Z,7.24
2019-01-16T23:19:40.372Z,7.19
2019-01-16T23:22:29.771Z,7.21
2019-01-16T23:25:11.516Z,7.17
2019-01-16T23:27:53.082Z,7.18
2019-01-16T23:30:31.849Z,7.12
2019-01-16T23:33:33.691Z,7.13
2019-01-16T23:39:27.147Z,7.06
2019-01-16T23:42:16.856Z,7.02
2019-01-16T23:45:06.100Z,7.02
2019-01-16T23:47:55.575Z,6.93
2019-01-16T23:50:44.898Z,6.88
2019-01-16T23:53:34.238Z,6.85
2019-01-16T23:56:15.442Z,6.87
2019-01-16T23:59:04.793Z,6.84
